sensor_id;sensor_type;location;lat;lon;timestamp;P1;durP1;ratioP1;P2;durP2;ratioP2
9100;SDS011;4586;52.518;13.486;2023-12-28T00:01:15;5.90;;;2.97;;
9100;SDS011;4586;52.518;13.486;2023-12-28T00:05:17;5.03;;;3.07;;
9100;SDS011;4586;52.518;13.486;2023-12-28T00:09:19;5.13;;;3.00;;
9100;SDS011;4586;52.518;13.486;2023-12-28T00:13:22;4.70;;;2.70;;
9100;SDS011;4586;52.518;13.486;2023-12-28T00:17:24;6.13;;;3.00;;
9100;SDS011;4586;52.518;13.486;2023-12-28T00:21:26;5.00;;;2.87;;
9100;SDS011;4586;52.518;13.486;2023-12-28T00:25:28;5.97;;;2.70;;
9100;SDS011;4586;52.518;13.486;2023-12-28T00:29:30;3.97;;;2.80;;
9100;SDS011;4586;52.518;13.486;2023-12-28T00:33:33;4.93;;;2.93;;
9100;SDS011;4586;52.518;13.486;2023-12-28T00:37:36;4.83;;;2.90;;
9100;SDS011;4586;52.518;13.486;2023-12-28T00:41:38;4.50;;;2.43;;
9100;SDS011;4586;52.518;13.486;2023-12-28T00:45:40;4.17;;;2.30;;
9100;SDS011;4586;52.518;13.486;2023-12-28T00:49:43;3.20;;;2.23;;
9100;SDS011;4586;52.518;13.486;2023-12-28T00:53:45;4.47;;;2.40;;
9100;SDS011;4586;52.518;13.486;2023-12-28T00:57:47;5.73;;;3.67;;
9100;SDS011;4586;52.518;13.486;2023-12-28T01:01:50;6.77;;;2.90;;
9100;SDS011;4586;52.518;13.486;2023-12-28T01:05:52;9.60;;;5.60;;
9100;SDS011;4586;52.518;13.486;2023-12-28T01:09:55;4.60;;;2.67;;
9100;SDS011;4586;52.518;13.486;2023-12-28T01:13:58;5.13;;;2.97;;
9100;SDS011;4586;52.518;13.486;2023-12-28T01:18:01;4.13;;;2.63;;
9100;SDS011;4586;52.518;13.486;2023-12-28T01:22:04;4.07;;;2.53;;
9100;SDS011;4586;52.518;13.486;2023-12-28T01:26:11;2.63;;;2.30;;
9100;SDS011;4586;52.518;13.486;2023-12-28T01:30:14;4.93;;;3.13;;
9100;SDS011;4586;52.518;13.486;2023-12-28T01:34:16;4.67;;;2.70;;
9100;SDS011;4586;52.518;13.486;2023-12-28T01:38:18;4.97;;;3.03;;
9100;SDS011;4586;52.518;13.486;2023-12-28T01:42:21;4.17;;;2.23;;
9100;SDS011;4586;52.518;13.486;2023-12-28T01:46:23;3.50;;;2.53;;
9100;SDS011;4586;52.518;13.486;2023-12-28T01:50:25;4.70;;;2.33;;
9100;SDS011;4586;52.518;13.486;2023-12-28T01:54:28;4.73;;;2.53;;
9100;SDS011;4586;52.518;13.486;2023-12-28T01:58:32;3.00;;;2.23;;
9100;SDS011;4586;52.518;13.486;2023-12-28T02:02:34;3.67;;;2.60;;
9100;SDS011;4586;52.518;13.486;2023-12-28T02:06:37;3.87;;;2.83;;
9100;SDS011;4586;52.518;13.486;2023-12-28T02:10:39;3.63;;;2.60;;
9100;SDS011;4586;52.518;13.486;2023-12-28T02:14:42;6.13;;;2.97;;
9100;SDS011;4586;52.518;13.486;2023-12-28T02:18:44;5.20;;;2.33;;
9100;SDS011;4586;52.518;13.486;2023-12-28T02:22:49;3.80;;;2.63;;
9100;SDS011;4586;52.518;13.486;2023-12-28T02:26:52;4.60;;;2.73;;
9100;SDS011;4586;52.518;13.486;2023-12-28T02:30:54;4.27;;;2.17;;
9100;SDS011;4586;52.518;13.486;2023-12-28T02:34:58;3.60;;;2.50;;
9100;SDS011;4586;52.518;13.486;2023-12-28T02:39:02;2.90;;;1.80;;
9100;SDS011;4586;52.518;13.486;2023-12-28T02:43:05;2.67;;;1.77;;
9100;SDS011;4586;52.518;13.486;2023-12-28T02:47:08;2.33;;;1.67;;
9100;SDS011;4586;52.518;13.486;2023-12-28T02:51:10;2.97;;;1.70;;
9100;SDS011;4586;52.518;13.486;2023-12-28T02:55:12;1.40;;;1.30;;
9100;SDS011;4586;52.518;13.486;2023-12-28T02:59:14;2.40;;;1.57;;
9100;SDS011;4586;52.518;13.486;2023-12-28T03:03:16;2.23;;;1.60;;
9100;SDS011;4586;52.518;13.486;2023-12-28T03:07:19;1.67;;;1.30;;
9100;SDS011;4586;52.518;13.486;2023-12-28T03:11:21;1.20;;;1.10;;
9100;SDS011;4586;52.518;13.486;2023-12-28T03:15:23;2.87;;;1.30;;
9100;SDS011;4586;52.518;13.486;2023-12-28T03:19:25;2.07;;;1.40;;
9100;SDS011;4586;52.518;13.486;2023-12-28T03:23:27;2.60;;;1.10;;
9100;SDS011;4586;52.518;13.486;2023-12-28T03:27:30;1.50;;;1.03;;
9100;SDS011;4586;52.518;13.486;2023-12-28T03:31:32;2.63;;;1.30;;
9100;SDS011;4586;52.518;13.486;2023-12-28T03:35:35;1.37;;;1.00;;
9100;SDS011;4586;52.518;13.486;2023-12-28T03:39:37;1.70;;;1.30;;
9100;SDS011;4586;52.518;13.486;2023-12-28T03:43:40;1.30;;;1.20;;
9100;SDS011;4586;52.518;13.486;2023-12-28T03:47:42;2.63;;;1.23;;
9100;SDS011;4586;52.518;13.486;2023-12-28T03:51:44;1.50;;;1.03;;
9100;SDS011;4586;52.518;13.486;2023-12-28T03:55:47;1.80;;;1.10;;
9100;SDS011;4586;52.518;13.486;2023-12-28T03:59:49;1.70;;;1.30;;
9100;SDS011;4586;52.518;13.486;2023-12-28T04:03:51;1.30;;;1.07;;
9100;SDS011;4586;52.518;13.486;2023-12-28T04:07:53;1.80;;;1.20;;
9100;SDS011;4586;52.518;13.486;2023-12-28T04:11:56;2.17;;;1.57;;
9100;SDS011;4586;52.518;13.486;2023-12-28T04:15:58;2.13;;;1.30;;
9100;SDS011;4586;52.518;13.486;2023-12-28T04:20:01;1.37;;;1.27;;
9100;SDS011;4586;52.518;13.486;2023-12-28T04:24:03;1.70;;;1.20;;
9100;SDS011;4586;52.518;13.486;2023-12-28T04:28:05;2.40;;;1.50;;
9100;SDS011;4586;52.518;13.486;2023-12-28T04:32:08;2.00;;;1.40;;
9100;SDS011;4586;52.518;13.486;2023-12-28T04:36:10;1.37;;;1.27;;
9100;SDS011;4586;52.518;13.486;2023-12-28T04:40:12;0.90;;;0.80;;
9100;SDS011;4586;52.518;13.486;2023-12-28T04:44:14;2.07;;;1.10;;
9100;SDS011;4586;52.518;13.486;2023-12-28T04:48:17;1.60;;;1.20;;
9100;SDS011;4586;52.518;13.486;2023-12-28T04:52:19;3.07;;;1.50;;
9100;SDS011;4586;52.518;13.486;2023-12-28T04:56:22;1.90;;;1.20;;
9100;SDS011;4586;52.518;13.486;2023-12-28T05:00:24;1.40;;;1.30;;
9100;SDS011;4586;52.518;13.486;2023-12-28T05:04:26;2.07;;;1.30;;
9100;SDS011;4586;52.518;13.486;2023-12-28T05:08:29;1.40;;;1.13;;
9100;SDS011;4586;52.518;13.486;2023-12-28T05:12:32;2.93;;;1.47;;
9100;SDS011;4586;52.518;13.486;2023-12-28T05:16:45;3.37;;;1.30;;
9100;SDS011;4586;52.518;13.486;2023-12-28T05:20:47;1.13;;;1.07;;
9100;SDS011;4586;52.518;13.486;2023-12-28T05:24:50;1.53;;;1.10;;
9100;SDS011;4586;52.518;13.486;2023-12-28T05:28:52;2.50;;;1.30;;
9100;SDS011;4586;52.518;13.486;2023-12-28T05:32:54;1.43;;;1.23;;
9100;SDS011;4586;52.518;13.486;2023-12-28T05:36:56;2.27;;;1.40;;
9100;SDS011;4586;52.518;13.486;2023-12-28T05:40:59;2.10;;;1.27;;
9100;SDS011;4586;52.518;13.486;2023-12-28T05:45:01;2.27;;;1.20;;
9100;SDS011;4586;52.518;13.486;2023-12-28T05:49:04;2.30;;;1.27;;
9100;SDS011;4586;52.518;13.486;2023-12-28T05:53:06;3.20;;;1.53;;
9100;SDS011;4586;52.518;13.486;2023-12-28T05:57:08;1.67;;;1.10;;
9100;SDS011;4586;52.518;13.486;2023-12-28T06:01:10;2.50;;;1.37;;
9100;SDS011;4586;52.518;13.486;2023-12-28T06:05:13;2.73;;;1.27;;
9100;SDS011;4586;52.518;13.486;2023-12-28T06:09:15;1.70;;;1.30;;
9100;SDS011;4586;52.518;13.486;2023-12-28T06:13:17;2.37;;;1.40;;
9100;SDS011;4586;52.518;13.486;2023-12-28T06:17:19;2.53;;;0.90;;
9100;SDS011;4586;52.518;13.486;2023-12-28T06:21:21;1.33;;;0.90;;
9100;SDS011;4586;52.518;13.486;2023-12-28T06:25:24;1.20;;;0.97;;
9100;SDS011;4586;52.518;13.486;2023-12-28T06:29:26;1.77;;;1.10;;
9100;SDS011;4586;52.518;13.486;2023-12-28T06:33:28;2.53;;;1.30;;
9100;SDS011;4586;52.518;13.486;2023-12-28T06:37:30;1.57;;;1.40;;
9100;SDS011;4586;52.518;13.486;2023-12-28T06:41:32;1.50;;;1.20;;
9100;SDS011;4586;52.518;13.486;2023-12-28T06:45:35;1.70;;;1.13;;
9100;SDS011;4586;52.518;13.486;2023-12-28T06:49:37;3.80;;;1.40;;
9100;SDS011;4586;52.518;13.486;2023-12-28T06:53:39;2.10;;;1.30;;
9100;SDS011;4586;52.518;13.486;2023-12-28T06:57:41;1.80;;;1.20;;
9100;SDS011;4586;52.518;13.486;2023-12-28T07:05:49;1.50;;;1.40;;
9100;SDS011;4586;52.518;13.486;2023-12-28T07:09:52;2.30;;;1.00;;
9100;SDS011;4586;52.518;13.486;2023-12-28T07:13:54;1.87;;;1.50;;
9100;SDS011;4586;52.518;13.486;2023-12-28T07:17:56;2.77;;;1.33;;
9100;SDS011;4586;52.518;13.486;2023-12-28T07:21:59;3.37;;;1.60;;
9100;SDS011;4586;52.518;13.486;2023-12-28T07:26:01;3.87;;;1.50;;
9100;SDS011;4586;52.518;13.486;2023-12-28T07:30:03;3.97;;;1.20;;
9100;SDS011;4586;52.518;13.486;2023-12-28T07:34:06;1.37;;;1.27;;
9100;SDS011;4586;52.518;13.486;2023-12-28T07:38:08;1.73;;;1.37;;
9100;SDS011;4586;52.518;13.486;2023-12-28T07:42:10;2.07;;;1.47;;
9100;SDS011;4586;52.518;13.486;2023-12-28T07:46:12;1.63;;;1.20;;
9100;SDS011;4586;52.518;13.486;2023-12-28T07:50:15;3.13;;;1.40;;
9100;SDS011;4586;52.518;13.486;2023-12-28T07:54:17;2.30;;;1.67;;
9100;SDS011;4586;52.518;13.486;2023-12-28T07:58:19;2.67;;;1.50;;
9100;SDS011;4586;52.518;13.486;2023-12-28T08:02:21;5.17;;;1.43;;
9100;SDS011;4586;52.518;13.486;2023-12-28T08:06:23;2.10;;;1.60;;
9100;SDS011;4586;52.518;13.486;2023-12-28T08:10:25;1.70;;;1.47;;
9100;SDS011;4586;52.518;13.486;2023-12-28T08:14:28;2.13;;;1.53;;
9100;SDS011;4586;52.518;13.486;2023-12-28T08:18:30;2.67;;;1.33;;
9100;SDS011;4586;52.518;13.486;2023-12-28T08:22:32;1.80;;;1.50;;
9100;SDS011;4586;52.518;13.486;2023-12-28T08:26:34;1.60;;;1.30;;
9100;SDS011;4586;52.518;13.486;2023-12-28T08:30:37;1.73;;;1.50;;
9100;SDS011;4586;52.518;13.486;2023-12-28T08:34:39;2.97;;;1.50;;
9100;SDS011;4586;52.518;13.486;2023-12-28T08:38:41;1.63;;;1.30;;
9100;SDS011;4586;52.518;13.486;2023-12-28T08:42:43;1.30;;;1.20;;
9100;SDS011;4586;52.518;13.486;2023-12-28T08:46:46;1.73;;;1.23;;
9100;SDS011;4586;52.518;13.486;2023-12-28T08:50:48;2.43;;;1.20;;
9100;SDS011;4586;52.518;13.486;2023-12-28T08:54:50;2.10;;;1.30;;
9100;SDS011;4586;52.518;13.486;2023-12-28T08:58:52;2.67;;;1.70;;
9100;SDS011;4586;52.518;13.486;2023-12-28T09:02:54;1.50;;;1.40;;
9100;SDS011;4586;52.518;13.486;2023-12-28T09:06:57;3.20;;;1.60;;
9100;SDS011;4586;52.518;13.486;2023-12-28T09:10:59;1.40;;;1.17;;
9100;SDS011;4586;52.518;13.486;2023-12-28T09:15:01;3.07;;;1.90;;
9100;SDS011;4586;52.518;13.486;2023-12-28T09:19:03;2.43;;;1.50;;
9100;SDS011;4586;52.518;13.486;2023-12-28T09:23:05;2.20;;;1.40;;
9100;SDS011;4586;52.518;13.486;2023-12-28T09:27:07;2.07;;;1.60;;
9100;SDS011;4586;52.518;13.486;2023-12-28T09:31:10;2.23;;;1.47;;
9100;SDS011;4586;52.518;13.486;2023-12-28T09:35:12;1.40;;;1.10;;
9100;SDS011;4586;52.518;13.486;2023-12-28T09:39:15;1.30;;;1.20;;
9100;SDS011;4586;52.518;13.486;2023-12-28T09:43:28;3.07;;;1.10;;
9100;SDS011;4586;52.518;13.486;2023-12-28T09:47:32;2.60;;;1.60;;
9100;SDS011;4586;52.518;13.486;2023-12-28T09:51:35;2.87;;;1.90;;
9100;SDS011;4586;52.518;13.486;2023-12-28T09:55:37;1.70;;;1.60;;
9100;SDS011;4586;52.518;13.486;2023-12-28T09:59:39;2.97;;;1.90;;
9100;SDS011;4586;52.518;13.486;2023-12-28T10:03:42;2.53;;;1.60;;
9100;SDS011;4586;52.518;13.486;2023-12-28T10:07:44;2.17;;;1.87;;
9100;SDS011;4586;52.518;13.486;2023-12-28T10:11:51;2.40;;;1.50;;
9100;SDS011;4586;52.518;13.486;2023-12-28T10:15:57;2.97;;;2.20;;
9100;SDS011;4586;52.518;13.486;2023-12-28T10:19:59;2.57;;;1.60;;
9100;SDS011;4586;52.518;13.486;2023-12-28T10:24:02;1.60;;;1.33;;
9100;SDS011;4586;52.518;13.486;2023-12-28T10:28:04;1.60;;;1.27;;
9100;SDS011;4586;52.518;13.486;2023-12-28T10:32:07;2.40;;;1.27;;
9100;SDS011;4586;52.518;13.486;2023-12-28T10:36:09;2.00;;;1.47;;
9100;SDS011;4586;52.518;13.486;2023-12-28T10:40:13;3.17;;;1.43;;
9100;SDS011;4586;52.518;13.486;2023-12-28T10:44:17;1.73;;;1.30;;
9100;SDS011;4586;52.518;13.486;2023-12-28T10:48:28;5.90;;;1.93;;
9100;SDS011;4586;52.518;13.486;2023-12-28T10:52:31;3.60;;;1.80;;
9100;SDS011;4586;52.518;13.486;2023-12-28T10:56:40;2.70;;;1.60;;
9100;SDS011;4586;52.518;13.486;2023-12-28T11:00:46;2.33;;;1.37;;
9100;SDS011;4586;52.518;13.486;2023-12-28T11:04:49;1.93;;;1.47;;
9100;SDS011;4586;52.518;13.486;2023-12-28T11:08:52;2.10;;;1.60;;
9100;SDS011;4586;52.518;13.486;2023-12-28T11:12:56;2.67;;;1.70;;
9100;SDS011;4586;52.518;13.486;2023-12-28T11:16:59;2.03;;;1.73;;
9100;SDS011;4586;52.518;13.486;2023-12-28T11:21:01;2.33;;;1.63;;
9100;SDS011;4586;52.518;13.486;2023-12-28T11:25:03;1.93;;;1.57;;
9100;SDS011;4586;52.518;13.486;2023-12-28T11:29:06;1.73;;;1.50;;
9100;SDS011;4586;52.518;13.486;2023-12-28T11:33:09;2.40;;;1.40;;
9100;SDS011;4586;52.518;13.486;2023-12-28T11:37:12;1.43;;;1.33;;
9100;SDS011;4586;52.518;13.486;2023-12-28T11:41:16;5.13;;;2.97;;
9100;SDS011;4586;52.518;13.486;2023-12-28T11:45:18;3.07;;;1.73;;
9100;SDS011;4586;52.518;13.486;2023-12-28T11:49:25;2.00;;;1.80;;
9100;SDS011;4586;52.518;13.486;2023-12-28T11:53:27;1.73;;;1.30;;
9100;SDS011;4586;52.518;13.486;2023-12-28T11:57:29;3.80;;;1.73;;
9100;SDS011;4586;52.518;13.486;2023-12-28T12:01:32;2.73;;;1.23;;
9100;SDS011;4586;52.518;13.486;2023-12-28T12:05:34;5.20;;;2.00;;
9100;SDS011;4586;52.518;13.486;2023-12-28T12:09:36;1.70;;;1.23;;
9100;SDS011;4586;52.518;13.486;2023-12-28T12:13:38;2.83;;;1.63;;
9100;SDS011;4586;52.518;13.486;2023-12-28T12:17:40;2.53;;;1.80;;
9100;SDS011;4586;52.518;13.486;2023-12-28T12:21:43;3.33;;;1.40;;
9100;SDS011;4586;52.518;13.486;2023-12-28T12:25:45;2.90;;;1.93;;
9100;SDS011;4586;52.518;13.486;2023-12-28T12:29:47;2.97;;;1.53;;
9100;SDS011;4586;52.518;13.486;2023-12-28T12:33:49;1.80;;;1.50;;
9100;SDS011;4586;52.518;13.486;2023-12-28T12:37:52;3.43;;;1.70;;
9100;SDS011;4586;52.518;13.486;2023-12-28T12:41:54;4.07;;;1.83;;
9100;SDS011;4586;52.518;13.486;2023-12-28T12:45:57;2.50;;;1.37;;
9100;SDS011;4586;52.518;13.486;2023-12-28T12:49:59;1.60;;;1.17;;
9100;SDS011;4586;52.518;13.486;2023-12-28T12:54:02;2.30;;;1.67;;
9100;SDS011;4586;52.518;13.486;2023-12-28T12:58:05;3.73;;;2.13;;
9100;SDS011;4586;52.518;13.486;2023-12-28T13:02:08;1.30;;;1.20;;
9100;SDS011;4586;52.518;13.486;2023-12-28T13:06:13;1.70;;;1.40;;
9100;SDS011;4586;52.518;13.486;2023-12-28T13:10:16;3.13;;;1.43;;
9100;SDS011;4586;52.518;13.486;2023-12-28T13:14:18;3.63;;;1.63;;
9100;SDS011;4586;52.518;13.486;2023-12-28T13:18:20;4.37;;;1.50;;
9100;SDS011;4586;52.518;13.486;2023-12-28T13:22:22;2.43;;;1.50;;
9100;SDS011;4586;52.518;13.486;2023-12-28T13:26:24;2.70;;;1.97;;
9100;SDS011;4586;52.518;13.486;2023-12-28T13:30:27;1.30;;;1.20;;
9100;SDS011;4586;52.518;13.486;2023-12-28T13:34:29;2.17;;;1.73;;
9100;SDS011;4586;52.518;13.486;2023-12-28T13:38:31;1.00;;;0.90;;
9100;SDS011;4586;52.518;13.486;2023-12-28T13:42:33;2.13;;;1.47;;
9100;SDS011;4586;52.518;13.486;2023-12-28T13:46:35;2.33;;;1.50;;
9100;SDS011;4586;52.518;13.486;2023-12-28T13:50:38;2.00;;;1.70;;
9100;SDS011;4586;52.518;13.486;2023-12-28T13:54:40;1.77;;;1.37;;
9100;SDS011;4586;52.518;13.486;2023-12-28T13:58:42;1.63;;;1.27;;
9100;SDS011;4586;52.518;13.486;2023-12-28T14:02:44;2.30;;;1.37;;
9100;SDS011;4586;52.518;13.486;2023-12-28T14:06:46;5.33;;;1.93;;
9100;SDS011;4586;52.518;13.486;2023-12-28T14:10:49;2.50;;;1.47;;
9100;SDS011;4586;52.518;13.486;2023-12-28T14:14:51;2.73;;;1.70;;
9100;SDS011;4586;52.518;13.486;2023-12-28T14:18:53;2.53;;;1.47;;
9100;SDS011;4586;52.518;13.486;2023-12-28T14:22:55;2.67;;;1.43;;
9100;SDS011;4586;52.518;13.486;2023-12-28T14:26:58;2.03;;;1.60;;
9100;SDS011;4586;52.518;13.486;2023-12-28T14:31:00;1.33;;;1.20;;
9100;SDS011;4586;52.518;13.486;2023-12-28T14:35:03;2.43;;;1.27;;
9100;SDS011;4586;52.518;13.486;2023-12-28T14:39:06;3.70;;;2.00;;
9100;SDS011;4586;52.518;13.486;2023-12-28T14:43:09;3.23;;;1.87;;
9100;SDS011;4586;52.518;13.486;2023-12-28T14:47:11;3.20;;;1.60;;
9100;SDS011;4586;52.518;13.486;2023-12-28T14:51:13;2.97;;;1.80;;
9100;SDS011;4586;52.518;13.486;2023-12-28T14:55:15;2.20;;;1.30;;
9100;SDS011;4586;52.518;13.486;2023-12-28T14:59:17;2.70;;;1.37;;
9100;SDS011;4586;52.518;13.486;2023-12-28T15:03:19;2.03;;;1.77;;
9100;SDS011;4586;52.518;13.486;2023-12-28T15:07:22;2.53;;;1.80;;
9100;SDS011;4586;52.518;13.486;2023-12-28T15:11:24;1.87;;;1.40;;
9100;SDS011;4586;52.518;13.486;2023-12-28T15:15:46;3.30;;;1.90;;
9100;SDS011;4586;52.518;13.486;2023-12-28T15:19:48;4.27;;;2.10;;
9100;SDS011;4586;52.518;13.486;2023-12-28T15:23:51;3.20;;;1.53;;
9100;SDS011;4586;52.518;13.486;2023-12-28T15:27:53;2.80;;;1.40;;
9100;SDS011;4586;52.518;13.486;2023-12-28T15:31:56;2.43;;;1.47;;
9100;SDS011;4586;52.518;13.486;2023-12-28T15:35:58;2.23;;;1.63;;
9100;SDS011;4586;52.518;13.486;2023-12-28T15:40:00;4.17;;;1.77;;
9100;SDS011;4586;52.518;13.486;2023-12-28T15:44:03;3.43;;;1.90;;
9100;SDS011;4586;52.518;13.486;2023-12-28T15:48:05;1.90;;;1.50;;
9100;SDS011;4586;52.518;13.486;2023-12-28T15:52:07;2.40;;;1.57;;
9100;SDS011;4586;52.518;13.486;2023-12-28T15:56:09;4.47;;;1.77;;
9100;SDS011;4586;52.518;13.486;2023-12-28T16:00:20;2.43;;;1.63;;
9100;SDS011;4586;52.518;13.486;2023-12-28T16:04:22;2.60;;;1.73;;
9100;SDS011;4586;52.518;13.486;2023-12-28T16:08:25;6.10;;;2.27;;
9100;SDS011;4586;52.518;13.486;2023-12-28T16:12:27;3.57;;;1.90;;
9100;SDS011;4586;52.518;13.486;2023-12-28T16:16:30;4.87;;;3.20;;
9100;SDS011;4586;52.518;13.486;2023-12-28T16:20:32;3.20;;;1.57;;
9100;SDS011;4586;52.518;13.486;2023-12-28T16:24:34;3.27;;;1.73;;
9100;SDS011;4586;52.518;13.486;2023-12-28T16:28:37;3.87;;;1.87;;
9100;SDS011;4586;52.518;13.486;2023-12-28T16:32:39;2.80;;;1.57;;
9100;SDS011;4586;52.518;13.486;2023-12-28T16:36:41;4.83;;;2.00;;
9100;SDS011;4586;52.518;13.486;2023-12-28T16:40:43;2.73;;;1.60;;
9100;SDS011;4586;52.518;13.486;2023-12-28T16:44:45;1.97;;;1.80;;
9100;SDS011;4586;52.518;13.486;2023-12-28T16:48:47;1.80;;;1.50;;
9100;SDS011;4586;52.518;13.486;2023-12-28T16:52:51;1.80;;;1.40;;
9100;SDS011;4586;52.518;13.486;2023-12-28T16:56:54;1.73;;;1.30;;
9100;SDS011;4586;52.518;13.486;2023-12-28T17:00:56;3.73;;;1.93;;
9100;SDS011;4586;52.518;13.486;2023-12-28T17:04:58;2.33;;;1.50;;
9100;SDS011;4586;52.518;13.486;2023-12-28T17:09:01;2.33;;;1.50;;
9100;SDS011;4586;52.518;13.486;2023-12-28T17:13:03;2.17;;;1.47;;
9100;SDS011;4586;52.518;13.486;2023-12-28T17:17:06;2.33;;;1.53;;
9100;SDS011;4586;52.518;13.486;2023-12-28T17:21:10;2.73;;;1.70;;
9100;SDS011;4586;52.518;13.486;2023-12-28T17:25:18;3.13;;;1.43;;
9100;SDS011;4586;52.518;13.486;2023-12-28T17:29:22;2.40;;;1.37;;
9100;SDS011;4586;52.518;13.486;2023-12-28T17:33:25;3.53;;;1.80;;
9100;SDS011;4586;52.518;13.486;2023-12-28T17:37:27;2.17;;;1.67;;
9100;SDS011;4586;52.518;13.486;2023-12-28T17:41:30;2.37;;;1.80;;
9100;SDS011;4586;52.518;13.486;2023-12-28T17:45:40;4.60;;;1.67;;
9100;SDS011;4586;52.518;13.486;2023-12-28T17:49:44;4.90;;;2.00;;
9100;SDS011;4586;52.518;13.486;2023-12-28T17:53:47;2.03;;;1.37;;
9100;SDS011;4586;52.518;13.486;2023-12-28T17:57:49;2.97;;;1.40;;
9100;SDS011;4586;52.518;13.486;2023-12-28T18:01:52;1.53;;;1.43;;
9100;SDS011;4586;52.518;13.486;2023-12-28T18:05:54;2.67;;;1.50;;
9100;SDS011;4586;52.518;13.486;2023-12-28T18:09:56;2.80;;;1.80;;
9100;SDS011;4586;52.518;13.486;2023-12-28T18:13:58;3.03;;;1.50;;
9100;SDS011;4586;52.518;13.486;2023-12-28T18:18:01;1.53;;;1.03;;
9100;SDS011;4586;52.518;13.486;2023-12-28T18:22:03;2.33;;;1.13;;
9100;SDS011;4586;52.518;13.486;2023-12-28T18:26:06;2.23;;;1.80;;
9100;SDS011;4586;52.518;13.486;2023-12-28T18:30:09;3.03;;;1.50;;
9100;SDS011;4586;52.518;13.486;2023-12-28T18:34:11;4.53;;;2.70;;
9100;SDS011;4586;52.518;13.486;2023-12-28T18:38:14;2.30;;;1.47;;
9100;SDS011;4586;52.518;13.486;2023-12-28T18:42:16;2.43;;;1.17;;
9100;SDS011;4586;52.518;13.486;2023-12-28T18:46:18;3.53;;;1.30;;
9100;SDS011;4586;52.518;13.486;2023-12-28T18:50:21;2.23;;;1.90;;
9100;SDS011;4586;52.518;13.486;2023-12-28T18:54:23;2.13;;;1.67;;
9100;SDS011;4586;52.518;13.486;2023-12-28T18:58:26;2.40;;;1.63;;
9100;SDS011;4586;52.518;13.486;2023-12-28T19:02:28;2.23;;;1.30;;
9100;SDS011;4586;52.518;13.486;2023-12-28T19:06:30;2.67;;;1.60;;
9100;SDS011;4586;52.518;13.486;2023-12-28T19:10:32;3.00;;;1.80;;
9100;SDS011;4586;52.518;13.486;2023-12-28T19:14:35;2.50;;;1.50;;
9100;SDS011;4586;52.518;13.486;2023-12-28T19:18:37;2.23;;;1.70;;
9100;SDS011;4586;52.518;13.486;2023-12-28T19:22:39;1.60;;;1.50;;
9100;SDS011;4586;52.518;13.486;2023-12-28T19:26:41;3.43;;;1.60;;
9100;SDS011;4586;52.518;13.486;2023-12-28T19:30:44;1.20;;;1.00;;
9100;SDS011;4586;52.518;13.486;2023-12-28T19:34:46;2.27;;;1.63;;
9100;SDS011;4586;52.518;13.486;2023-12-28T19:38:48;2.13;;;1.47;;
9100;SDS011;4586;52.518;13.486;2023-12-28T19:42:50;2.43;;;1.60;;
9100;SDS011;4586;52.518;13.486;2023-12-28T19:46:53;2.47;;;1.50;;
9100;SDS011;4586;52.518;13.486;2023-12-28T19:50:55;3.80;;;3.20;;
9100;SDS011;4586;52.518;13.486;2023-12-28T19:54:57;2.87;;;1.90;;
9100;SDS011;4586;52.518;13.486;2023-12-28T19:58:59;2.07;;;1.70;;
9100;SDS011;4586;52.518;13.486;2023-12-28T20:03:01;2.30;;;1.73;;
9100;SDS011;4586;52.518;13.486;2023-12-28T20:07:07;2.50;;;1.80;;
9100;SDS011;4586;52.518;13.486;2023-12-28T20:11:09;2.47;;;1.47;;
9100;SDS011;4586;52.518;13.486;2023-12-28T20:15:11;2.53;;;1.90;;
9100;SDS011;4586;52.518;13.486;2023-12-28T20:19:13;3.50;;;2.17;;
9100;SDS011;4586;52.518;13.486;2023-12-28T20:23:16;2.77;;;2.00;;
9100;SDS011;4586;52.518;13.486;2023-12-28T20:27:18;3.60;;;2.03;;
9100;SDS011;4586;52.518;13.486;2023-12-28T20:31:20;2.83;;;2.20;;
9100;SDS011;4586;52.518;13.486;2023-12-28T20:35:23;2.60;;;1.83;;
9100;SDS011;4586;52.518;13.486;2023-12-28T20:39:25;4.37;;;2.37;;
9100;SDS011;4586;52.518;13.486;2023-12-28T20:43:27;5.47;;;2.27;;
9100;SDS011;4586;52.518;13.486;2023-12-28T20:47:29;2.17;;;1.83;;
9100;SDS011;4586;52.518;13.486;2023-12-28T20:51:31;2.40;;;1.90;;
9100;SDS011;4586;52.518;13.486;2023-12-28T20:55:34;4.30;;;2.53;;
9100;SDS011;4586;52.518;13.486;2023-12-28T20:59:36;4.30;;;2.17;;
9100;SDS011;4586;52.518;13.486;2023-12-28T21:03:38;3.23;;;2.00;;
9100;SDS011;4586;52.518;13.486;2023-12-28T21:07:40;3.73;;;2.07;;
9100;SDS011;4586;52.518;13.486;2023-12-28T21:11:42;4.87;;;2.00;;
9100;SDS011;4586;52.518;13.486;2023-12-28T21:15:45;3.53;;;2.07;;
9100;SDS011;4586;52.518;13.486;2023-12-28T21:19:47;3.23;;;1.70;;
9100;SDS011;4586;52.518;13.486;2023-12-28T21:23:49;3.00;;;2.10;;
9100;SDS011;4586;52.518;13.486;2023-12-28T21:27:52;1.70;;;1.60;;
9100;SDS011;4586;52.518;13.486;2023-12-28T21:31:54;2.47;;;1.73;;
9100;SDS011;4586;52.518;13.486;2023-12-28T21:35:56;3.50;;;2.00;;
9100;SDS011;4586;52.518;13.486;2023-12-28T21:39:58;2.33;;;1.77;;
9100;SDS011;4586;52.518;13.486;2023-12-28T21:44:00;2.97;;;2.10;;
9100;SDS011;4586;52.518;13.486;2023-12-28T21:48:03;2.90;;;2.23;;
9100;SDS011;4586;52.518;13.486;2023-12-28T21:52:06;5.27;;;2.30;;
9100;SDS011;4586;52.518;13.486;2023-12-28T21:56:09;5.30;;;2.50;;
9100;SDS011;4586;52.518;13.486;2023-12-28T22:00:11;2.17;;;1.60;;
9100;SDS011;4586;52.518;13.486;2023-12-28T22:04:13;3.17;;;2.03;;
9100;SDS011;4586;52.518;13.486;2023-12-28T22:08:15;2.93;;;2.20;;
9100;SDS011;4586;52.518;13.486;2023-12-28T22:12:17;4.47;;;2.10;;
9100;SDS011;4586;52.518;13.486;2023-12-28T22:16:20;3.80;;;2.10;;
9100;SDS011;4586;52.518;13.486;2023-12-28T22:20:22;1.90;;;1.50;;
9100;SDS011;4586;52.518;13.486;2023-12-28T22:24:24;2.57;;;1.67;;
9100;SDS011;4586;52.518;13.486;2023-12-28T22:28:26;3.80;;;1.87;;
9100;SDS011;4586;52.518;13.486;2023-12-28T22:32:28;2.47;;;1.80;;
9100;SDS011;4586;52.518;13.486;2023-12-28T22:36:31;2.43;;;1.80;;
9100;SDS011;4586;52.518;13.486;2023-12-28T22:40:33;1.97;;;1.60;;
9100;SDS011;4586;52.518;13.486;2023-12-28T22:44:35;3.03;;;1.87;;
9100;SDS011;4586;52.518;13.486;2023-12-28T22:48:37;2.13;;;1.47;;
9100;SDS011;4586;52.518;13.486;2023-12-28T22:52:40;3.53;;;1.97;;
9100;SDS011;4586;52.518;13.486;2023-12-28T22:56:42;1.67;;;1.57;;
9100;SDS011;4586;52.518;13.486;2023-12-28T23:00:44;2.53;;;1.53;;
9100;SDS011;4586;52.518;13.486;2023-12-28T23:04:46;1.73;;;1.30;;
9100;SDS011;4586;52.518;13.486;2023-12-28T23:08:56;3.53;;;1.50;;
9100;SDS011;4586;52.518;13.486;2023-12-28T23:12:58;1.30;;;1.20;;
9100;SDS011;4586;52.518;13.486;2023-12-28T23:17:01;2.60;;;1.10;;
9100;SDS011;4586;52.518;13.486;2023-12-28T23:21:03;1.13;;;0.93;;
9100;SDS011;4586;52.518;13.486;2023-12-28T23:25:05;1.43;;;1.33;;
9100;SDS011;4586;52.518;13.486;2023-12-28T23:29:07;1.40;;;1.10;;
9100;SDS011;4586;52.518;13.486;2023-12-28T23:33:10;1.70;;;1.27;;
9100;SDS011;4586;52.518;13.486;2023-12-28T23:37:12;2.80;;;1.60;;
9100;SDS011;4586;52.518;13.486;2023-12-28T23:41:14;1.73;;;1.17;;
9100;SDS011;4586;52.518;13.486;2023-12-28T23:45:16;1.20;;;1.10;;
9100;SDS011;4586;52.518;13.486;2023-12-28T23:49:18;1.63;;;1.30;;
9100;SDS011;4586;52.518;13.486;2023-12-28T23:53:21;2.43;;;1.67;;
9100;SDS011;4586;52.518;13.486;2023-12-28T23:57:23;1.30;;;1.03;;
